Time;durP1;ratioP1;P1;durP2;ratioP2;P2;SDS_P1;SDS_P2;PMS_P1;PMS_P2;Temp;Humidity;BMP_temperature;BMP_pressure;BME280_temperature;BME280_humidity;BME280_pressure;Samples;Min_cycle;Max_cycle;Signal;HPM_P1;HPM_P2
2022/09/04 00:00:12;;;;;;;;;;;;;;;16.70;60.10;99976.13;4424970;32;19993;-89
2022/09/04 00:02:40;;;;;;;;;;;;;;;16.81;60.10;99968.53;4424387;32;20004;-88
2022/09/04 00:05:08;;;;;;;;;;;;;;;16.65;60.10;99979.91;4438634;32;19977;-88
2022/09/04 00:07:34;;;;;;;;;;;;;;;16.66;60.10;99977.25;4438687;32;19985;-88
2022/09/04 00:10:18;;;;;;;;;;;;;;;16.74;60.10;99974.19;4424505;32;20334;-89
2022/09/04 00:12:49;;;;;;;;;;;;;;;16.74;60.10;99982.06;4429844;32;19994;-88
2022/09/04 00:15:22;;;;;;;;;;;;;;;16.72;60.11;99976.91;4424661;32;20410;-88
2022/09/04 00:18:10;;;;;;;;;;;;;;;16.80;60.11;99984.41;4425010;32;20319;-88
2022/09/04 00:20:46;;;;;;;;;;;;;;;16.93;60.11;99974.91;4416497;32;20394;-87
2022/09/04 00:23:15;;;;;;;;;;;;;;;17.05;60.12;99976.88;4425688;32;20012;-88
2022/09/04 00:25:51;;;;;;;;;;;;;;;17.12;60.12;99980.00;4440407;32;19977;-89
2022/09/04 00:28:18;;;;;;;;;;;;;;;16.98;60.12;99977.25;4426337;32;19978;-89
2022/09/04 00:30:49;;;;;;;;;;;;;;;16.83;60.11;99984.22;4424464;32;19973;-89
2022/09/04 00:33:22;;;;;;;;;;;;;;;16.84;60.11;99985.94;4423993;32;20012;-88
2022/09/04 00:35:55;;;;;;;;;;;;;;;16.95;60.11;99986.19;4423995;32;20068;-87
2022/09/04 00:38:23;;;;;;;;;;;;;;;17.07;60.11;99987.31;4423788;32;20057;-88
2022/09/04 00:40:51;;;;;;;;;;;;;;;17.15;60.12;99987.72;4438200;32;20034;-88
2022/09/04 00:43:31;;;;;;;;;;;;;;;17.25;60.13;99986.25;4411155;32;19990;-89
2022/09/04 00:46:03;;;;;;;;;;;;;;;17.17;60.13;99984.06;4414475;32;19978;-88
2022/09/04 00:48:38;;;;;;;;;;;;;;;17.23;60.12;99987.28;4424061;32;20364;-90
2022/09/04 00:51:39;;;;;;;;;;;;;;;17.17;60.13;99991.09;4437932;32;20038;-89
2022/09/04 00:54:09;;;;;;;;;;;;;;;17.22;60.12;99981.19;4374690;32;20017;-90
2022/09/04 00:56:37;;;;;;;;;;;;;;;17.18;60.13;99980.50;4402960;32;19991;-90
2022/09/04 00:59:15;;;;;;;;;;;;;;;17.37;60.13;99985.59;4438046;32;19981;-89
2022/09/04 01:01:40;;;;;;;;;;;;;;;17.29;60.13;99981.69;4423007;32;19981;-90
2022/09/04 01:04:24;;;;;;;;;;;;;;;17.70;60.16;99979.38;4412531;32;22182;-88
2022/09/04 01:06:55;;;;;;;;;;;;;;;17.50;60.14;99981.31;4437998;32;19970;-88
2022/09/04 01:09:59;;;;;;;;;;;;;;;17.58;60.14;99983.53;4437999;32;20020;-89
2022/09/04 01:12:28;;;;;;;;;;;;;;;17.37;60.13;99980.31;4374706;32;20352;-89
2022/09/04 01:15:23;;;;;;;;;;;;;;;17.47;60.14;99992.03;4374863;32;20441;-89
2022/09/04 01:18:03;;;;;;;;;;;;;;;17.46;60.13;99994.75;4398141;32;19992;-89
2022/09/04 01:20:47;;;;;;;;;;;;;;;17.53;60.14;99995.25;4423675;32;20424;-88
2022/09/04 01:23:20;;;;;;;;;;;;;;;17.39;60.14;99996.03;4423903;32;19994;-88
2022/09/04 01:25:46;;;;;;;;;;;;;;;17.40;60.14;100003.84;4423467;32;20016;-89
2022/09/04 01:28:30;;;;;;;;;;;;;;;17.48;60.15;100003.41;4423664;32;20009;-89
2022/09/04 01:31:01;;;;;;;;;;;;;;;17.68;60.15;100007.56;4423654;32;19981;-89
2022/09/04 01:33:30;;;;;;;;;;;;;;;17.75;60.16;100011.56;4410932;32;20289;-89
2022/09/04 01:36:11;;;;;;;;;;;;;;;17.93;60.17;100007.84;4410778;32;20129;-89
2022/09/04 01:38:39;;;;;;;;;;;;;;;17.99;60.16;100006.66;4437729;32;19974;-86
2022/09/04 01:41:06;;;;;;;;;;;;;;;17.96;60.17;100007.66;4437766;32;20049;-88
2022/09/04 01:43:32;;;;;;;;;;;;;;;17.93;60.17;100010.47;4423766;32;20051;-88
2022/09/04 01:46:06;;;;;;;;;;;;;;;17.97;60.16;100016.41;4423544;32;20025;-87
2022/09/04 01:48:37;;;;;;;;;;;;;;;17.95;60.16;100013.87;4423615;32;19996;-87
2022/09/04 01:51:05;;;;;;;;;;;;;;;18.04;60.17;100012.50;4437650;32;20045;-88
2022/09/04 01:53:30;;;;;;;;;;;;;;;17.98;60.16;100011.09;4424184;32;20009;-87
2022/09/04 01:55:56;;;;;;;;;;;;;;;17.86;60.16;100019.69;4424276;32;20298;-90
2022/09/04 01:58:34;;;;;;;;;;;;;;;17.93;60.17;100010.47;4439914;32;20008;-89
2022/09/04 02:01:06;;;;;;;;;;;;;;;18.03;60.17;100016.09;4419947;32;19949;-89
2022/09/04 02:03:31;;;;;;;;;;;;;;;17.84;60.17;100015.44;4414156;32;20362;-89
2022/09/04 02:06:21;;;;;;;;;;;;;;;17.79;60.16;100015.72;4437473;32;19997;-89
2022/09/04 02:08:46;;;;;;;;;;;;;;;17.91;60.16;100012.34;4423300;32;20025;-89
2022/09/04 02:11:14;;;;;;;;;;;;;;;17.83;60.16;100016.37;4437155;32;20003;-90
2022/09/04 02:13:39;;;;;;;;;;;;;;;17.93;60.17;100012.25;4423067;32;20391;-90
2022/09/04 02:16:13;;;;;;;;;;;;;;;17.91;60.16;100012.34;4424162;32;20002;-91
2022/09/04 02:18:59;;;;;;;;;;;;;;;17.94;60.17;100017.44;4425840;32;19969;-91
2022/09/04 02:21:42;;;;;;;;;;;;;;;17.87;60.17;100012.63;4425761;32;19977;-91
2022/09/04 02:24:07;;;;;;;;;;;;;;;17.86;60.17;100008.31;4412460;32;19970;-90
2022/09/04 02:26:36;;;;;;;;;;;;;;;17.72;60.16;100015.19;4425237;32;20666;-90
2022/09/04 02:29:13;;;;;;;;;;;;;;;17.90;60.16;100021.19;4412432;32;20331;-90
2022/09/04 02:31:44;;;;;;;;;;;;;;;17.78;60.16;100028.03;4425249;32;19989;-91
2022/09/04 02:34:28;;;;;;;;;;;;;;;17.73;60.16;100021.31;4412541;32;19989;-91
2022/09/04 02:37:02;;;;;;;;;;;;;;;17.70;60.16;100026.75;4425541;32;20016;-91
2022/09/04 02:39:46;;;;;;;;;;;;;;;17.72;60.15;100024.88;4412653;32;19974;-90
2022/09/04 02:42:18;;;;;;;;;;;;;;;17.75;60.16;100024.72;4439573;32;20381;-90
2022/09/04 02:44:59;;;;;;;;;;;;;;;17.89;60.16;100023.91;4412761;32;20005;-90
2022/09/04 02:47:44;;;;;;;;;;;;;;;17.71;60.15;100025.81;4439639;32;19978;-91
2022/09/04 02:50:15;;;;;;;;;;;;;;;17.77;60.16;100022.84;4425429;32;20346;-90
2022/09/04 02:52:45;;;;;;;;;;;;;;;17.73;60.15;100022.16;4425537;32;19981;-90
2022/09/04 02:55:16;;;;;;;;;;;;;;;17.61;60.16;100025.47;4425794;32;19985;-91
2022/09/04 02:58:00;;;;;;;;;;;;;;;17.62;60.15;100024.53;4413052;32;19993;-92
2022/09/04 03:00:44;;;;;;;;;;;;;;;17.62;60.15;100026.31;4425239;32;19997;-90
2022/09/04 03:03:12;;;;;;;;;;;;;;;17.70;60.15;100024.97;4425485;32;19984;-92
2022/09/04 03:05:45;;;;;;;;;;;;;;;17.64;60.15;100021.81;4412310;32;20005;-90
2022/09/04 03:08:29;;;;;;;;;;;;;;;17.59;60.15;100022.09;4412256;32;20051;-89
2022/09/04 03:10:56;;;;;;;;;;;;;;;17.60;60.14;100020.28;4429471;32;19999;-90
2022/09/04 03:13:40;;;;;;;;;;;;;;;17.58;60.14;100030.06;4425064;32;19986;-90
2022/09/04 03:16:09;;;;;;;;;;;;;;;17.49;60.14;100019.09;4429727;32;19981;-89
2022/09/04 03:18:37;;;;;;;;;;;;;;;17.46;60.14;100019.28;4425327;32;20034;-91
2022/09/04 03:21:05;;;;;;;;;;;;;;;17.23;60.12;100014.44;4425179;32;20380;-91
2022/09/04 03:23:37;;;;;;;;;;;;;;;17.19;60.12;100028.69;4413031;32;19969;-91
2022/09/04 03:26:02;;;;;;;;;;;;;;;17.24;60.13;100029.28;4412651;32;19994;-91
2022/09/04 03:28:37;;;;;;;;;;;;;;;17.40;60.14;100027.53;4425318;32;20239;-89
2022/09/04 03:31:25;;;;;;;;;;;;;;;17.38;60.12;100032.03;4427345;32;20378;-91
2022/09/04 03:34:03;;;;;;;;;;;;;;;17.19;60.12;100029.53;4420158;32;19977;-88
2022/09/04 03:36:39;;;;;;;;;;;;;;;17.11;60.12;100037.03;4412895;32;19989;-89
2022/09/04 03:39:30;;;;;;;;;;;;;;;17.17;60.13;100044.56;4413045;32;19993;-90
2022/09/04 03:42:03;;;;;;;;;;;;;;;17.10;60.12;100045.00;4414976;32;20373;-89
2022/09/04 03:44:35;;;;;;;;;;;;;;;17.33;60.13;100046.38;4438865;32;19981;-89
2022/09/04 03:47:00;;;;;;;;;;;;;;;17.33;60.13;100046.38;4424751;32;20058;-89
2022/09/04 03:49:42;;;;;;;;;;;;;;;17.21;60.12;100042.62;4424600;32;20476;-88
2022/09/04 03:52:20;;;;;;;;;;;;;;;17.16;60.13;100049.91;4411958;32;19989;-89
2022/09/04 03:54:48;;;;;;;;;;;;;;;17.05;60.12;100047.03;4438613;32;19988;-89
2022/09/04 03:57:23;;;;;;;;;;;;;;;17.12;60.12;100048.38;4438749;32;20263;-88
2022/09/04 03:59:51;;;;;;;;;;;;;;;16.92;60.11;100046.81;4438630;32;20377;-88
2022/09/04 04:02:31;;;;;;;;;;;;;;;17.03;60.11;100047.09;4434142;32;20259;-91
2022/09/04 04:05:02;;;;;;;;;;;;;;;16.99;60.10;100052.59;4434143;32;19973;-91
2022/09/04 04:07:40;;;;;;;;;;;;;;;17.09;60.12;100051.19;4411838;32;19997;-90
2022/09/04 04:10:20;;;;;;;;;;;;;;;17.14;60.12;100059.69;4424647;32;20028;-90
2022/09/04 04:12:56;;;;;;;;;;;;;;;17.16;60.12;100057.81;4438751;32;20038;-92
2022/09/04 04:15:26;;;;;;;;;;;;;;;17.15;60.12;100059.59;4411881;32;20335;-90
2022/09/04 04:17:54;;;;;;;;;;;;;;;17.16;60.12;100069.19;4424624;32;19998;-90
2022/09/04 04:20:53;;;;;;;;;;;;;;;17.34;60.13;100079.66;4438479;32;20034;-91
2022/09/04 04:23:21;;;;;;;;;;;;;;;17.18;60.12;100082.25;4404289;32;20033;-90
2022/09/04 04:25:59;;;;;;;;;;;;;;;17.34;60.13;100092.81;4424289;32;19996;-89
2022/09/04 04:28:45;;;;;;;;;;;;;;;17.37;60.13;100090.84;4424505;32;20472;-90
2022/09/04 04:31:17;;;;;;;;;;;;;;;17.36;60.13;100094.41;4438683;32;20011;-90
2022/09/04 04:34:06;;;;;;;;;;;;;;;17.39;60.14;100099.50;4411956;32;20068;-90
2022/09/04 04:36:50;;;;;;;;;;;;;;;17.47;60.14;100101.72;4430030;32;19974;-90
2022/09/04 04:39:34;;;;;;;;;;;;;;;17.56;60.14;100101.22;4423427;32;19994;-91
2022/09/04 04:42:18;;;;;;;;;;;;;;;17.64;60.15;100103.41;4438724;32;19985;-90
2022/09/04 04:47:52;;;;;;;;;;;;;;;17.86;60.16;100111.00;4438509;32;20067;-90
2022/09/04 04:50:35;;;;;;;;;;;;;;;17.83;60.16;100108.56;4438943;32;20024;-90
2022/09/04 04:53:04;;;;;;;;;;;;;;;17.95;60.16;100111.31;4439070;32;20038;-90
2022/09/04 04:55:38;;;;;;;;;;;;;;;17.98;60.16;100120.84;4425095;32;19977;-91
2022/09/04 04:58:10;;;;;;;;;;;;;;;18.09;60.17;100113.19;4412491;32;20069;-89
2022/09/04 05:00:42;;;;;;;;;;;;;;;18.05;60.17;100128.31;4425634;32;19986;-89
2022/09/04 05:03:14;;;;;;;;;;;;;;;18.24;60.18;100132.56;4416554;32;20031;-89
2022/09/04 05:05:49;;;;;;;;;;;;;;;18.35;60.18;100130.97;4436378;32;19985;-88
2022/09/04 05:08:19;;;;;;;;;;;;;;;18.51;60.19;100124.81;4439783;32;20468;-88
2022/09/04 05:10:46;;;;;;;;;;;;;;;18.50;60.19;100117.84;4424689;32;20020;-88
2022/09/04 05:13:15;;;;;;;;;;;;;;;18.56;60.20;100123.59;4424248;32;20034;-89
2022/09/04 05:15:54;;;;;;;;;;;;;;;18.70;60.21;100128.97;4411175;32;20034;-89
2022/09/04 05:18:38;;;;;;;;;;;;;;;18.86;60.21;100123.59;4423984;32;19977;-89
2022/09/04 05:21:06;;;;;;;;;;;;;;;18.92;60.22;100133.75;4427732;32;19989;-88
2022/09/04 05:23:42;;;;;;;;;;;;;;;19.08;60.21;100117.00;4437837;32;20000;-89
2022/09/04 05:26:10;;;;;;;;;;;;;;;19.17;60.23;100121.75;4423600;32;19987;-88
2022/09/04 05:28:51;;;;;;;;;;;;;;;19.17;60.23;100122.59;4423924;32;20372;-89
2022/09/04 05:31:28;;;;;;;;;;;;;;;19.31;60.24;100127.84;4427606;32;20053;-89
2022/09/04 05:34:11;;;;;;;;;;;;;;;19.41;60.25;100122.88;4437655;32;19990;-88
2022/09/04 05:36:49;;;;;;;;;;;;;;;19.44;60.23;100130.59;4437682;32;19973;-89
2022/09/04 05:39:17;;;;;;;;;;;;;;;19.53;60.24;100132.69;4423489;32;19986;-89
2022/09/04 05:41:42;;;;;;;;;;;;;;;19.54;60.25;100139.66;4437591;32;19990;-89
2022/09/04 05:44:28;;;;;;;;;;;;;;;19.49;60.24;100140.84;4423366;32;20007;-89
2022/09/04 05:47:01;;;;;;;;;;;;;;;19.56;60.25;100144.84;4426353;32;20331;-87
2022/09/04 05:49:52;;;;;;;;;;;;;;;19.62;60.25;100153.22;4423738;32;19995;-86
2022/09/04 05:52:24;;;;;;;;;;;;;;;19.51;60.24;100157.44;4425842;32;19986;-88
2022/09/04 05:54:55;;;;;;;;;;;;;;;19.61;60.24;100150.66;4439829;32;20041;-88
2022/09/04 05:57:24;;;;;;;;;;;;;;;19.67;60.25;100155.59;4413100;32;19969;-86
2022/09/04 06:00:09;;;;;;;;;;;;;;;19.65;60.25;100144.28;4412651;32;19977;-88
2022/09/04 06:02:53;;;;;;;;;;;;;;;19.69;60.25;100145.78;4418459;32;20397;-87
2022/09/04 06:05:30;;;;;;;;;;;;;;;19.57;60.25;100147.38;4437240;32;20125;-88
2022/09/04 06:08:18;;;;;;;;;;;;;;;19.67;60.25;100142.37;4425467;32;19973;-88
2022/09/04 06:10:46;;;;;;;;;;;;;;;19.58;60.25;100145.59;4412327;32;20294;-86
2022/09/04 06:13:22;;;;;;;;;;;;;;;19.64;60.25;100150.50;4425479;32;20012;-87
2022/09/04 06:16:06;;;;;;;;;;;;;;;19.70;60.25;100154.53;4425447;32;20468;-87
2022/09/04 06:18:34;;;;;;;;;;;;;;;19.83;60.26;100150.16;4439866;32;19981;-86
2022/09/04 06:21:08;;;;;;;;;;;;;;;19.87;60.26;100147.25;4415055;32;19985;-87
2022/09/04 06:23:36;;;;;;;;;;;;;;;19.96;60.27;100148.44;4439842;32;20004;-86
2022/09/04 06:26:34;;;;;;;;;;;;;;;19.97;60.27;100146.66;4439524;32;19985;-86
2022/09/04 06:29:08;;;;;;;;;;;;;;;20.14;60.27;100156.97;4405370;32;19974;-87
2022/09/04 06:31:43;;;;;;;;;;;;;;;20.24;60.29;100158.91;4440386;32;19978;-87
2022/09/04 06:34:14;;;;;;;;;;;;;;;20.30;60.28;100155.00;4440686;32;20001;-87
2022/09/04 06:36:49;;;;;;;;;;;;;;;20.29;60.28;100158.59;4428293;32;20954;-87
2022/09/04 06:39:20;;;;;;;;;;;;;;;20.31;60.28;100158.50;4431797;32;20342;-87
2022/09/04 06:42:09;;;;;;;;;;;;;;;20.32;60.29;100155.75;4425785;32;19990;-87
2022/09/04 06:44:38;;;;;;;;;;;;;;;20.34;60.29;100169.72;4430898;32;19969;-87
2022/09/04 06:47:03;;;;;;;;;;;;;;;20.15;60.29;100170.09;4412489;32;19977;-87
2022/09/04 06:49:36;;;;;;;;;;;;;;;20.35;60.29;100168.81;4425182;32;20040;-88
2022/09/04 06:52:14;;;;;;;;;;;;;;;20.36;60.29;100174.94;4425094;32;20007;-86
2022/09/04 06:54:42;;;;;;;;;;;;;;;20.40;60.30;100181.72;4439046;32;19981;-86
2022/09/04 06:57:14;;;;;;;;;;;;;;;20.38;60.28;100173.03;4439176;32;20026;-86
2022/09/04 06:59:54;;;;;;;;;;;;;;;20.47;60.30;100175.09;4424709;32;20784;-86
2022/09/04 07:02:38;;;;;;;;;;;;;;;20.53;60.29;100179.97;4423841;32;19997;-87
2022/09/04 07:05:22;;;;;;;;;;;;;;;20.56;60.31;100182.41;4439094;32;19977;-87
2022/09/04 07:07:48;;;;;;;;;;;;;;;20.51;60.30;100176.56;4438930;32;20019;-87
2022/09/04 07:10:33;;;;;;;;;;;;;;;20.61;60.30;100185.63;4438887;32;19990;-84
2022/09/04 07:12:58;;;;;;;;;;;;;;;20.70;60.31;100182.34;4438497;32;19966;-86
2022/09/04 07:15:42;;;;;;;;;;;;;;;20.83;60.31;100182.38;4438825;32;19966;-87
2022/09/04 07:18:11;;;;;;;;;;;;;;;20.99;60.32;100180.38;4439224;32;19989;-87
2022/09/04 07:20:36;;;;;;;;;;;;;;;21.04;60.32;100180.03;4424901;32;19988;-87
2022/09/04 07:23:02;;;;;;;;;;;;;;;21.22;60.33;100180.59;4439234;32;19989;-86
2022/09/04 07:25:38;;;;;;;;;;;;;;;21.28;60.34;100186.31;4438697;32;19973;-87
2022/09/04 07:28:13;;;;;;;;;;;;;;;21.35;60.34;100184.13;4425023;32;20325;-86
2022/09/04 07:30:41;;;;;;;;;;;;;;;21.27;60.34;100183.78;4424909;32;20038;-87
2022/09/04 07:33:11;;;;;;;;;;;;;;;21.40;60.34;100182.00;4424830;32;19966;-85
2022/09/04 07:36:00;;;;;;;;;;;;;;;21.46;60.35;100186.84;4424817;32;20310;-87
2022/09/04 07:38:26;;;;;;;;;;;;;;;21.41;60.35;100194.28;4416675;32;20353;-87
2022/09/04 07:40:54;;;;;;;;;;;;;;;21.53;60.35;100198.75;4438921;32;19992;-87
2022/09/04 07:43:24;;;;;;;;;;;;;;;21.59;60.35;100190.34;4412184;32;20041;-87
2022/09/04 07:46:04;;;;;;;;;;;;;;;21.66;60.36;100196.06;4424928;32;19995;-87
2022/09/04 07:48:31;;;;;;;;;;;;;;;21.72;60.37;100192.97;4425318;32;19989;-84
2022/09/04 07:51:09;;;;;;;;;;;;;;;21.79;60.36;100196.03;4424622;32;19993;-87
2022/09/04 07:53:58;;;;;;;;;;;;;;;21.72;60.36;100196.47;4426170;32;19985;-87
2022/09/04 07:56:30;;;;;;;;;;;;;;;21.78;60.38;100195.19;4438865;32;20043;-85
2022/09/04 07:59:01;;;;;;;;;;;;;;;21.70;60.36;100195.72;4439084;32;20005;-86
2022/09/04 08:01:45;;;;;;;;;;;;;;;21.74;60.36;100205.12;4411974;32;20004;-87
2022/09/04 08:04:20;;;;;;;;;;;;;;;21.67;60.36;100209.19;4416411;32;20361;-87
2022/09/04 08:06:58;;;;;;;;;;;;;;;21.68;60.36;100223.28;4426929;32;20049;-85
2022/09/04 08:09:31;;;;;;;;;;;;;;;21.83;60.37;100224.88;4431371;32;20002;-85
2022/09/04 08:11:59;;;;;;;;;;;;;;;22.05;60.38;100227.72;4445384;32;19996;-85
2022/09/04 08:14:26;;;;;;;;;;;;;;;22.05;60.38;100238.31;4439281;32;20065;-86
2022/09/04 08:16:55;;;;;;;;;;;;;;;22.02;60.37;100237.66;4438348;32;20007;-87
2022/09/04 08:19:39;;;;;;;;;;;;;;;22.04;60.38;100228.66;4424421;32;19997;-86
2022/09/04 08:22:05;;;;;;;;;;;;;;;22.19;60.39;100236.44;4438145;32;20013;-87
2022/09/04 08:24:40;;;;;;;;;;;;;;;22.31;60.39;100228.47;4418950;32;20298;-86
2022/09/04 08:27:20;;;;;;;;;;;;;;;22.36;60.40;100236.06;4433697;32;19985;-86
2022/09/04 08:29:45;;;;;;;;;;;;;;;22.27;60.39;100240.25;4424097;32;20384;-87
2022/09/04 08:32:20;;;;;;;;;;;;;;;22.43;60.40;100239.97;4437956;32;19989;-87
2022/09/04 08:34:57;;;;;;;;;;;;;;;22.64;60.40;100242.84;4423889;32;19981;-86
2022/09/04 08:37:41;;;;;;;;;;;;;;;22.67;60.42;100240.81;4437880;32;20354;-88
2022/09/04 08:40:23;;;;;;;;;;;;;;;22.61;60.41;100235.12;4423839;32;20504;-87
2022/09/04 08:42:57;;;;;;;;;;;;;;;22.87;60.42;100236.69;4423751;32;19974;-88
2022/09/04 08:45:38;;;;;;;;;;;;;;;22.99;60.43;100236.75;4423671;32;19973;-86
2022/09/04 08:48:12;;;;;;;;;;;;;;;22.95;60.42;100246.75;4437989;32;20085;-86
2022/09/04 08:50:38;;;;;;;;;;;;;;;;;;4437963;32;19985;-87
2022/09/04 08:53:08;;;;;;;;;;;;;;;22.98;60.43;100243.87;4438078;32;20140;-88
2022/09/04 08:55:54;;;;;;;;;;;;;;;22.88;60.43;100242.84;4424049;32;19986;-87
2022/09/04 08:58:33;;;;;;;;;;;;;;;23.07;60.43;100237.84;4438064;32;19981;-87
2022/09/04 09:01:13;;;;;;;;;;;;;;;23.00;60.43;100239.28;4424061;32;20039;-87
2022/09/04 09:04:04;;;;;;;;;;;;;;;23.09;60.43;100243.87;4413214;32;19993;-87
2022/09/04 09:06:39;;;;;;;;;;;;;;;23.06;60.44;100243.28;4411482;32;20032;-87
2022/09/04 09:09:07;;;;;;;;;;;;;;;23.01;60.43;100243.63;4437907;32;20039;-87
2022/09/04 09:11:38;;;;;;;;;;;;;;;23.08;60.44;100244.00;4437669;32;19993;-87
2022/09/04 09:14:33;;;;;;;;;;;;;;;23.27;60.44;100246.94;4437833;32;19969;-87
2022/09/04 09:17:18;;;;;;;;;;;;;;;23.11;60.45;100247.28;4424615;32;19984;-88
2022/09/04 09:19:44;;;;;;;;;;;;;;;23.42;60.45;100255.53;4437776;32;20412;-88
2022/09/04 09:22:28;;;;;;;;;;;;;;;23.68;60.47;100248.25;4423770;32;19990;-86
2022/09/04 09:24:56;;;;;;;;;;;;;;;23.84;60.47;100246.91;4409162;32;19995;-85
2022/09/04 09:27:27;;;;;;;;;;;;;;;23.92;60.48;100254.28;4430558;32;20232;-86
2022/09/04 09:30:06;;;;;;;;;;;;;;;23.92;60.48;100254.28;4439434;32;20029;-86
2022/09/04 09:32:44;;;;;;;;;;;;;;;24.05;60.49;100252.31;4412684;32;20289;-87
2022/09/04 09:35:28;;;;;;;;;;;;;;;24.02;60.49;100255.22;4439495;32;19969;-86
2022/09/04 09:38:03;;;;;;;;;;;;;;;24.23;60.49;100250.00;4439620;32;19991;-87
2022/09/04 09:40:47;;;;;;;;;;;;;;;24.31;60.51;100252.91;4425428;32;19997;-85
2022/09/04 09:43:25;;;;;;;;;;;;;;;24.49;60.51;100253.22;4452437;32;20000;-86
2022/09/04 09:45:53;;;;;;;;;;;;;;;24.32;60.50;100251.09;4428653;32;20026;-86
2022/09/04 09:48:36;;;;;;;;;;;;;;;24.28;60.51;100253.16;4440749;32;19973;-86
2022/09/04 09:51:13;;;;;;;;;;;;;;;24.23;60.49;100246.50;4426866;32;20041;-85
2022/09/04 09:53:48;;;;;;;;;;;;;;;24.56;60.52;100249.09;4426536;32;20052;-85
2022/09/04 09:56:18;;;;;;;;;;;;;;;24.77;60.53;100249.12;4440567;32;20044;-85
2022/09/04 09:58:43;;;;;;;;;;;;;;;24.53;60.52;100246.69;4413755;32;19977;-87
2022/09/04 10:01:21;;;;;;;;;;;;;;;24.34;60.50;100238.50;4440165;32;20023;-86
2022/09/04 10:04:09;;;;;;;;;;;;;;;24.21;60.50;100251.09;4426575;32;19994;-86
2022/09/04 10:06:53;;;;;;;;;;;;;;;24.04;60.48;100247.97;4427152;32;19992;-86
2022/09/04 10:09:36;;;;;;;;;;;;;;;23.64;60.47;100260.06;4440805;32;19980;-85
2022/09/04 10:12:19;;;;;;;;;;;;;;;23.56;60.47;100264.16;4426716;32;20346;-86
2022/09/04 10:14:52;;;;;;;;;;;;;;;23.48;60.46;100261.25;4440834;32;20041;-86
2022/09/04 10:17:21;;;;;;;;;;;;;;;23.54;60.46;100267.87;4426885;32;19981;-87
2022/09/04 10:20:07;;;;;;;;;;;;;;;23.58;60.47;100256.91;4440636;32;19965;-86
2022/09/04 10:22:51;;;;;;;;;;;;;;;23.74;60.48;100266.38;4426377;32;19993;-88
2022/09/04 10:25:30;;;;;;;;;;;;;;;23.78;60.48;100262.50;4440677;32;19985;-87
2022/09/04 10:28:11;;;;;;;;;;;;;;;23.91;60.48;100263.22;4426700;32;20254;-88
2022/09/04 10:30:54;;;;;;;;;;;;;;;23.94;60.48;100260.31;4440626;32;20040;-88
2022/09/04 10:33:39;;;;;;;;;;;;;;;24.01;60.49;100252.69;4440288;32;19981;-88
2022/09/04 10:36:10;;;;;;;;;;;;;;;24.07;60.49;100249.53;4426217;32;20446;-88
2022/09/04 10:38:35;;;;;;;;;;;;;;;23.95;60.48;100258.50;4439383;32;20267;-87
2022/09/04 10:41:16;;;;;;;;;;;;;;;23.98;60.49;100266.25;4440194;32;20021;-88
2022/09/04 10:43:51;;;;;;;;;;;;;;;24.05;60.50;100264.78;4440162;32;20064;-88
2022/09/04 10:46:21;;;;;;;;;;;;;;;24.09;60.49;100256.41;4426181;32;19981;-87
2022/09/04 10:48:57;;;;;;;;;;;;;;;24.01;60.49;100261.53;4426277;32;20041;-88
2022/09/04 10:51:44;;;;;;;;;;;;;;;24.06;60.50;100262.00;4426443;32;19978;-88
2022/09/04 10:54:22;;;;;;;;;;;;;;;24.02;60.49;100273.84;4426032;32;20001;-87
2022/09/04 10:57:03;;;;;;;;;;;;;;;24.15;60.50;100266.59;4426191;32;20008;-87
2022/09/04 10:59:47;;;;;;;;;;;;;;;24.22;60.50;100266.94;4426422;32;19973;-85
2022/09/04 11:02:24;;;;;;;;;;;;;;;24.23;60.50;100267.78;4426457;32;20556;-86
2022/09/04 11:04:58;;;;;;;;;;;;;;;24.27;60.50;100274.53;4440609;32;19985;-86
2022/09/04 11:07:35;;;;;;;;;;;;;;;24.43;60.50;100270.56;4427024;32;20005;-86
2022/09/04 11:10:03;;;;;;;;;;;;;;;24.70;60.52;100272.75;4428081;32;19969;-87
2022/09/04 11:12:47;;;;;;;;;;;;;;;24.82;60.53;100273.56;4428918;32;19999;-87
2022/09/04 11:15:31;;;;;;;;;;;;;;;24.91;60.54;100266.63;4450137;32;19985;-87
2022/09/04 11:18:21;;;;;;;;;;;;;;;25.00;60.54;100263.22;4440344;32;19977;-87
2022/09/04 11:21:06;;;;;;;;;;;;;;;25.15;60.55;100261.09;4431555;32;20311;-87
2022/09/04 11:23:34;;;;;;;;;;;;;;;25.51;60.56;100252.59;4439724;32;19985;-88
2022/09/04 11:26:10;;;;;;;;;;;;;;;25.48;60.57;100258.22;4439122;32;20330;-87
2022/09/04 11:28:43;;;;;;;;;;;;;;;25.46;60.55;100254.00;4425512;32;19989;-86
2022/09/04 11:31:20;;;;;;;;;;;;;;;25.61;60.58;100253.53;4439777;32;20281;-87
2022/09/04 11:34:03;;;;;;;;;;;;;;;25.77;60.57;100254.88;4440105;32;19974;-88
2022/09/04 11:36:38;;;;;;;;;;;;;;;25.77;60.58;100255.72;4440259;32;19985;-87
2022/09/04 11:39:24;;;;;;;;;;;;;;;25.72;60.57;100265.94;4440032;32;20373;-88
2022/09/04 11:41:57;;;;;;;;;;;;;;;25.67;60.57;100265.50;4425854;32;20130;-87
2022/09/04 11:44:45;;;;;;;;;;;;;;;25.70;60.58;100265.22;4426140;32;19969;-87
2022/09/04 11:47:13;;;;;;;;;;;;;;;25.84;60.58;100261.37;4439803;32;19997;-87
2022/09/04 11:49:39;;;;;;;;;;;;;;;25.96;60.58;100250.47;4439252;32;19990;-87
2022/09/04 11:52:15;;;;;;;;;;;;;;;25.96;60.59;100242.44;4425607;32;20052;-87
2022/09/04 11:54:52;;;;;;;;;;;;;;;26.15;60.59;100246.16;4412790;32;20032;-87
2022/09/04 11:57:20;;;;;;;;;;;;;;;26.34;60.60;100240.03;4439381;32;19986;-86
2022/09/04 12:00:01;;;;;;;;;;;;;;;26.45;60.61;100240.75;4412729;32;902831;-87
2022/09/04 12:02:46;;;;;;;;;;;;;;;26.50;60.62;100235.88;4439549;32;19981;-87
2022/09/04 12:05:17;;;;;;;;;;;;;;;26.39;60.60;100225.31;4425797;32;19974;-86
2022/09/04 12:07:52;;;;;;;;;;;;;;;26.35;60.61;100225.72;4425531;32;19993;-86
2022/09/04 12:10:17;;;;;;;;;;;;;;;26.44;60.61;100227.56;4439738;32;20053;-86
2022/09/04 12:13:01;;;;;;;;;;;;;;;26.15;60.60;100220.31;4425532;32;19981;-87
2022/09/04 12:15:43;;;;;;;;;;;;;;;26.39;60.61;100221.81;4439638;32;20064;-86
2022/09/04 12:18:19;;;;;;;;;;;;;;;26.57;60.62;100220.13;4439609;32;19996;-87
2022/09/04 12:21:00;;;;;;;;;;;;;;;26.54;60.61;100220.41;4425840;32;19982;-87
2022/09/04 12:23:36;;;;;;;;;;;;;;;26.51;60.62;100218.03;4425672;32;20099;-87
2022/09/04 12:26:11;;;;;;;;;;;;;;;26.54;60.62;100221.25;4412670;32;19981;-87
2022/09/04 12:28:55;;;;;;;;;;;;;;;26.61;60.62;100211.69;4439537;32;19985;-87
2022/09/04 12:31:20;;;;;;;;;;;;;;;26.52;60.62;100217.03;4439507;32;20077;-86
2022/09/04 12:34:00;;;;;;;;;;;;;;;26.77;60.63;100219.16;4439588;32;20008;-87
2022/09/04 12:36:36;;;;;;;;;;;;;;;26.83;60.63;100223.91;4425727;32;20036;-86
2022/09/04 12:39:02;;;;;;;;;;;;;;;26.85;60.63;100219.28;4413391;32;20065;-87
2022/09/04 12:41:33;;;;;;;;;;;;;;;26.91;60.63;100218.69;4441109;32;19974;-86
2022/09/04 12:44:13;;;;;;;;;;;;;;;27.25;60.65;100212.09;4442473;32;20019;-87
2022/09/04 12:46:49;;;;;;;;;;;;;;;27.51;60.67;100210.44;4442315;32;19966;-87
2022/09/04 12:49:26;;;;;;;;;;;;;;;27.46;60.67;100202.87;4440564;32;20333;-87
2022/09/04 12:51:57;;;;;;;;;;;;;;;27.61;60.67;100207.72;4425266;32;19994;-86
2022/09/04 12:54:32;;;;;;;;;;;;;;;27.81;60.67;100204.84;4439387;32;19974;-86
2022/09/04 12:56:57;;;;;;;;;;;;;;;27.83;60.69;100204.69;4425408;32;20418;-87
2022/09/04 12:59:27;;;;;;;;;;;;;;;27.74;60.67;100203.75;4439170;32;20025;-87
2022/09/04 13:01:55;;;;;;;;;;;;;;;27.50;60.67;100204.25;4424339;32;20042;-87
2022/09/04 13:04:33;;;;;;;;;;;;;;;27.59;60.68;100199.84;4439239;32;19992;-87
2022/09/04 13:07:19;;;;;;;;;;;;;;;27.63;60.67;100198.59;4439257;32;19969;-86
2022/09/04 13:10:05;;;;;;;;;;;;;;;27.83;60.69;100196.66;4439209;32;20070;-87
2022/09/04 13:12:39;;;;;;;;;;;;;;;27.88;60.68;100194.38;4427839;32;19997;-87
2022/09/04 13:15:09;;;;;;;;;;;;;;;28.27;60.70;100186.16;4439094;32;19986;-87
2022/09/04 13:17:44;;;;;;;;;;;;;;;28.53;60.71;100178.19;4424936;32;19970;-87
2022/09/04 13:20:16;;;;;;;;;;;;;;;28.25;60.71;100180.09;4424737;32;19989;-86
2022/09/04 13:22:45;;;;;;;;;;;;;;;28.33;60.71;100178.34;4412105;32;20460;-87